Time;durP1;ratioP1;P1;durP2;ratioP2;P2;SDS_P1;SDS_P2;PMS_P1;PMS_P2;Temp;Humidity;BMP_temperature;BMP_pressure;BME280_temperature;BME280_humidity;BME280_pressure;Samples;Min_cycle;Max_cycle;Signal;HPM_P1;HPM_P2
2023/12/27 00:00:41;;;;;;;14.00;9.02;;;;;;;;;;4904705;28;20028;-75
2023/12/27 00:03:07;;;;;;;12.98;8.27;;;;;;;;;;4908437;28;20054;-74
2023/12/27 00:05:33;;;;;;;12.75;8.35;;;;;;;;;;4904924;28;20043;-74
2023/12/27 00:07:59;;;;;;;12.02;7.70;;;;;;;;;;4908526;29;21503;-76
2023/12/27 00:10:25;;;;;;;;;;;;;;;;;;4910047;29;20093;-75
2023/12/27 00:12:51;;;;;;;11.02;7.30;;;;;;;;;;4906118;29;20598;-74
2023/12/27 00:15:18;;;;;;;11.25;7.18;;;;;;;;;;4925166;28;20110;-74
2023/12/27 00:17:44;;;;;;;11.27;6.90;;;;;;;;;;4904386;28;20031;-75
2023/12/27 00:20:10;;;;;;;11.52;6.57;;;;;;;;;;4907413;29;20046;-76
2023/12/27 00:22:36;;;;;;;;;;;;;;;;;;4922388;28;20138;-74
2023/12/27 00:25:02;;;;;;;9.82;6.07;;;;;;;;;;4923442;28;19936;-75
2023/12/27 00:27:28;;;;;;;;;;;;;;;;;;4908728;28;20035;-74
2023/12/27 00:29:54;;;;;;;10.82;6.07;;;;;;;;;;4923601;28;20222;-75
2023/12/27 00:32:20;;;;;;;11.25;6.18;;;;;;;;;;4924500;28;20043;-76
2023/12/27 00:34:49;;;;;;;11.15;6.25;;;;;;;;;;4921350;28;20154;-75
2023/12/27 00:37:15;;;;;;;11.55;6.55;;;;;;;;;;4926214;28;20039;-74
2023/12/27 00:39:42;;;;;;;12.82;6.75;;;;;;;;;;4904113;28;20882;-74
2023/12/27 00:42:08;;;;;;;11.95;6.75;;;;;;;;;;4921582;28;20027;-75
2023/12/27 00:44:34;;;;;;;11.13;6.80;;;;;;;;;;4903514;28;20034;-74
2023/12/27 00:47:00;;;;;;;12.88;6.88;;;;;;;;;;4924819;28;20041;-74
2023/12/27 00:49:26;;;;;;;11.50;6.57;;;;;;;;;;4903257;28;20031;-74
2023/12/27 00:51:52;;;;;;;;;;;;;;;;;;4919067;28;20064;-74
2023/12/27 00:54:19;;;;;;;12.30;7.05;;;;;;;;;;4905781;28;19926;-74
2023/12/27 00:56:45;;;;;;;12.00;6.80;;;;;;;;;;4903545;28;20106;-75
2023/12/27 00:59:11;;;;;;;11.10;7.20;;;;;;;;;;4906919;29;21285;-75
2023/12/27 01:01:37;;;;;;;11.63;7.45;;;;;;;;;;4905985;28;20035;-74
2023/12/27 01:04:03;;;;;;;12.80;6.88;;;;;;;;;;4925410;28;20659;-74
2023/12/27 01:06:29;;;;;;;;;;;;;;;;;;4905947;28;20030;-75
2023/12/27 01:08:55;;;;;;;11.38;7.28;;;;;;;;;;4910598;29;19918;-75
2023/12/27 01:11:22;;;;;;;11.25;7.30;;;;;;;;;;4921824;28;20061;-74
2023/12/27 01:13:48;;;;;;;13.10;7.43;;;;;;;;;;4911671;28;20380;-74
2023/12/27 01:16:15;;;;;;;;;;;;;;;;;;4926891;28;20051;-74
2023/12/27 01:18:41;;;;;;;12.02;7.60;;;;;;;;;;4902459;28;20029;-74
2023/12/27 01:21:07;;;;;;;13.98;9.18;;;;;;;;;;4925829;28;20130;-74
2023/12/27 01:23:33;;;;;;;13.57;9.50;;;;;;;;;;4921386;28;20035;-74
2023/12/27 01:26:00;;;;;;;15.60;8.48;;;;;;;;;;4927372;28;20027;-74
2023/12/27 01:28:26;;;;;;;;;;;;;;;;;;4927891;28;20105;-75
2023/12/27 01:30:52;;;;;;;12.77;7.28;;;;;;;;;;4923452;28;20013;-74
2023/12/27 01:33:18;;;;;;;12.32;7.45;;;;;;;;;;4911789;29;20059;-75
2023/12/27 01:35:45;;;;;;;10.60;6.38;;;;;;;;;;4919131;28;20846;-75
2023/12/27 01:38:11;;;;;;;10.85;5.72;;;;;;;;;;4907225;29;20027;-76
2023/12/27 01:40:37;;;;;;;9.63;5.70;;;;;;;;;;4921526;28;20035;-75
2023/12/27 01:43:03;;;;;;;9.23;4.80;;;;;;;;;;4910418;29;20027;-75
2023/12/27 01:45:29;;;;;;;9.57;5.38;;;;;;;;;;4920118;28;20066;-75
2023/12/27 01:47:56;;;;;;;9.52;5.40;;;;;;;;;;4923942;28;20882;-75
2023/12/27 01:50:22;;;;;;;11.00;6.05;;;;;;;;;;4908839;29;20066;-74
2023/12/27 01:52:48;;;;;;;11.02;6.43;;;;;;;;;;4904812;28;20040;-75
2023/12/27 01:55:16;;;;;;;10.68;6.40;;;;;;;;;;4911776;29;20035;-73
2023/12/27 01:57:42;;;;;;;11.20;6.55;;;;;;;;;;4921821;28;20138;-75
2023/12/27 02:00:09;;;;;;;12.27;7.25;;;;;;;;;;4911549;29;20042;-75
2023/12/27 02:02:38;;;;;;;12.05;7.15;;;;;;;;;;4901215;28;20102;-75
2023/12/27 02:05:04;;;;;;;11.65;7.10;;;;;;;;;;4927129;28;20376;-76
2023/12/27 02:07:30;;;;;;;11.68;7.38;;;;;;;;;;4910653;28;20038;-74
2023/12/27 02:09:57;;;;;;;11.55;6.95;;;;;;;;;;4923764;28;20595;-75
2023/12/27 02:12:27;;;;;;;10.50;6.28;;;;;;;;;;4912549;29;20027;-73
2023/12/27 02:14:53;;;;;;;12.52;6.95;;;;;;;;;;4914525;28;20034;-76
2023/12/27 02:17:20;;;;;;;10.85;6.35;;;;;;;;;;4908922;29;20727;-76
2023/12/27 02:19:46;;;;;;;10.57;6.25;;;;;;;;;;4910062;28;20039;-76
2023/12/27 02:22:15;;;;;;;11.25;5.78;;;;;;;;;;4927818;28;20019;-76
2023/12/27 02:24:42;;;;;;;9.82;5.80;;;;;;;;;;4920990;28;20064;-76
2023/12/27 02:27:08;;;;;;;10.57;5.40;;;;;;;;;;4913242;29;20710;-75
2023/12/27 02:29:35;;;;;;;10.27;5.18;;;;;;;;;;4925375;28;20074;-75
2023/12/27 02:32:01;;;;;;;11.20;5.78;;;;;;;;;;4926358;28;20043;-75
2023/12/27 02:34:27;;;;;;;10.70;5.53;;;;;;;;;;4921866;28;20050;-75
2023/12/27 02:36:54;;;;;;;10.38;5.45;;;;;;;;;;4903126;29;20027;-75
2023/12/27 02:39:20;;;;;;;9.10;5.18;;;;;;;;;;4906725;29;20042;-74
2023/12/27 02:41:46;;;;;;;9.25;5.18;;;;;;;;;;4910048;28;20042;-75
2023/12/27 02:44:12;;;;;;;11.65;6.75;;;;;;;;;;4924772;28;20035;-75
2023/12/27 02:46:38;;;;;;;13.40;7.78;;;;;;;;;;4908922;28;20074;-73
2023/12/27 02:49:04;;;;;;;11.23;6.72;;;;;;;;;;4910387;29;20122;-76
2023/12/27 02:51:30;;;;;;;11.63;5.80;;;;;;;;;;4918020;28;20031;-75
2023/12/27 02:53:56;;;;;;;9.20;5.35;;;;;;;;;;4909267;29;20035;-75
2023/12/27 02:56:22;;;;;;;9.60;5.15;;;;;;;;;;4924996;28;20070;-75
2023/12/27 02:58:49;;;;;;;9.73;5.05;;;;;;;;;;4919975;28;20024;-76
2023/12/27 03:01:15;;;;;;;8.63;4.50;;;;;;;;;;4926667;28;20965;-75
2023/12/27 03:03:41;;;;;;;9.00;4.50;;;;;;;;;;4906815;28;20098;-76
2023/12/27 03:06:07;;;;;;;8.48;4.28;;;;;;;;;;4906778;29;20023;-75
2023/12/27 03:08:35;;;;;;;9.20;4.55;;;;;;;;;;4908762;28;20050;-75
2023/12/27 03:11:01;;;;;;;8.85;4.28;;;;;;;;;;4908212;29;20052;-77
2023/12/27 03:13:27;;;;;;;8.02;3.95;;;;;;;;;;4905685;28;20035;-75
2023/12/27 03:15:53;;;;;;;8.80;4.10;;;;;;;;;;4912740;29;20030;-74
2023/12/27 03:18:19;;;;;;;9.45;4.68;;;;;;;;;;4925489;28;20050;-74
2023/12/27 03:20:45;;;;;;;9.35;4.80;;;;;;;;;;4908768;28;23457;-74
2023/12/27 03:23:12;;;;;;;8.00;4.40;;;;;;;;;;4923584;28;20048;-73
2023/12/27 03:25:38;;;;;;;8.60;4.22;;;;;;;;;;4909263;28;20039;-73
2023/12/27 03:28:04;;;;;;;8.27;4.25;;;;;;;;;;4916632;29;20031;-74
2023/12/27 03:30:30;;;;;;;8.75;4.13;;;;;;;;;;4922668;28;20030;-74
2023/12/27 03:32:56;;;;;;;8.98;4.25;;;;;;;;;;4924671;28;20071;-74
2023/12/27 03:35:22;;;;;;;9.02;4.80;;;;;;;;;;4927330;28;20023;-74
2023/12/27 03:37:48;;;;;;;8.98;4.28;;;;;;;;;;4911675;28;20039;-74
2023/12/27 03:40:14;;;;;;;8.82;4.32;;;;;;;;;;4914427;29;20115;-73
2023/12/27 03:42:41;;;;;;;8.15;4.25;;;;;;;;;;4918662;28;20273;-73
2023/12/27 03:45:07;;;;;;;9.13;4.38;;;;;;;;;;4924658;28;20521;-74
2023/12/27 03:47:33;;;;;;;8.48;4.47;;;;;;;;;;4910035;28;20768;-74
2023/12/27 03:50:02;;;;;;;9.23;4.30;;;;;;;;;;4911443;29;20454;-74
2023/12/27 03:52:28;;;;;;;8.68;4.07;;;;;;;;;;4927007;28;20030;-74
2023/12/27 03:54:54;;;;;;;8.45;4.05;;;;;;;;;;4930344;28;20050;-73
2023/12/27 03:57:20;;;;;;;8.50;4.25;;;;;;;;;;4915051;29;20229;-74
2023/12/27 03:59:46;;;;;;;8.30;4.53;;;;;;;;;;4923985;28;20258;-74
2023/12/27 04:02:12;;;;;;;8.45;4.47;;;;;;;;;;4930469;28;20027;-74
2023/12/27 04:04:39;;;;;;;9.18;4.43;;;;;;;;;;4909438;28;20035;-74
2023/12/27 04:07:05;;;;;;;9.00;4.55;;;;;;;;;;4924003;28;20027;-74
2023/12/27 04:09:31;;;;;;;10.75;4.75;;;;;;;;;;4915180;28;20566;-73
2023/12/27 04:11:57;;;;;;;8.18;4.43;;;;;;;;;;4929307;28;20062;-73
2023/12/27 04:14:24;;;;;;;9.07;4.88;;;;;;;;;;4929561;28;20035;-73
2023/12/27 04:16:51;;;;;;;8.57;4.55;;;;;;;;;;4907056;28;20036;-72
2023/12/27 04:19:17;;;;;;;9.98;4.75;;;;;;;;;;4930086;28;20035;-75
2023/12/27 04:21:43;;;;;;;9.90;5.03;;;;;;;;;;4923354;28;20032;-75
2023/12/27 04:24:09;;;;;;;9.98;4.75;;;;;;;;;;4910611;29;20023;-75
2023/12/27 04:26:42;;;;;;;8.48;4.57;;;;;;;;;;4920674;28;20034;-75
2023/12/27 04:29:08;;;;;;;8.40;4.28;;;;;;;;;;4926912;28;20118;-75
2023/12/27 04:31:36;;;;;;;8.88;4.40;;;;;;;;;;4925486;28;20520;-75
2023/12/27 04:34:02;;;;;;;8.85;4.95;;;;;;;;;;4913174;28;20039;-75
2023/12/27 04:36:28;;;;;;;8.63;4.88;;;;;;;;;;4910465;28;20038;-75
2023/12/27 04:38:54;;;;;;;8.75;4.78;;;;;;;;;;4924193;28;20038;-74
2023/12/27 04:41:21;;;;;;;7.95;4.40;;;;;;;;;;4925622;28;20031;-74
2023/12/27 04:43:47;;;;;;;8.50;4.55;;;;;;;;;;4926761;28;20166;-75
2023/12/27 04:46:13;;;;;;;9.38;4.80;;;;;;;;;;4926007;28;20038;-75
2023/12/27 04:48:39;;;;;;;9.00;5.03;;;;;;;;;;4928605;28;20038;-75
2023/12/27 04:51:05;;;;;;;9.80;4.80;;;;;;;;;;4917531;29;20038;-75
2023/12/27 04:53:32;;;;;;;9.20;4.88;;;;;;;;;;4910181;28;20042;-76
2023/12/27 04:55:58;;;;;;;8.88;4.72;;;;;;;;;;4927534;28;20023;-73
2023/12/27 04:58:24;;;;;;;8.82;4.80;;;;;;;;;;4927195;28;20036;-75
2023/12/27 05:00:50;;;;;;;10.82;4.90;;;;;;;;;;4922864;28;20091;-75
2023/12/27 05:03:16;;;;;;;8.75;4.72;;;;;;;;;;4910290;29;20035;-75
2023/12/27 05:05:42;;;;;;;9.90;4.60;;;;;;;;;;4926928;28;20748;-75
2023/12/27 05:08:08;;;;;;;8.73;4.30;;;;;;;;;;4912887;29;20046;-75
2023/12/27 05:10:35;;;;;;;9.60;4.70;;;;;;;;;;4904575;28;20087;-75
2023/12/27 05:13:01;;;;;;;9.13;4.50;;;;;;;;;;4923047;28;20027;-75
2023/12/27 05:15:27;;;;;;;8.85;4.70;;;;;;;;;;4925546;28;20027;-75
2023/12/27 05:17:53;;;;;;;8.65;4.55;;;;;;;;;;4911800;29;20083;-75
2023/12/27 05:20:19;;;;;;;9.05;4.55;;;;;;;;;;4928889;28;20027;-76
2023/12/27 05:22:45;;;;;;;7.30;3.40;;;;;;;;;;4924911;28;20228;-75
2023/12/27 05:25:12;;;;;;;8.25;4.00;;;;;;;;;;4926419;28;20142;-75
2023/12/27 05:27:38;;;;;;;;;;;;;;;;;;4904536;28;20641;-75
2023/12/27 05:30:04;;;;;;;8.25;4.32;;;;;;;;;;4926433;28;19921;-74
2023/12/27 05:32:30;;;;;;;8.00;3.80;;;;;;;;;;4903796;28;20075;-75
2023/12/27 05:34:56;;;;;;;10.00;4.70;;;;;;;;;;4926085;28;20114;-75
2023/12/27 05:37:22;;;;;;;9.75;4.47;;;;;;;;;;4921946;28;20762;-75
2023/12/27 05:39:48;;;;;;;9.77;4.53;;;;;;;;;;4908267;28;20032;-75
2023/12/27 05:42:14;;;;;;;9.00;4.53;;;;;;;;;;4928471;28;20027;-75
2023/12/27 05:44:41;;;;;;;11.65;5.35;;;;;;;;;;4906736;28;20893;-75
2023/12/27 05:47:07;;;;;;;11.32;5.35;;;;;;;;;;4929182;28;20117;-75
2023/12/27 05:49:33;;;;;;;10.68;6.10;;;;;;;;;;4926131;28;20035;-75
2023/12/27 05:52:00;;;;;;;10.60;6.53;;;;;;;;;;4910540;29;20040;-79
2023/12/27 05:54:26;;;;;;;9.77;5.45;;;;;;;;;;4907755;29;20032;-75
2023/12/27 05:56:53;;;;;;;9.90;5.78;;;;;;;;;;4913277;28;20114;-74
2023/12/27 05:59:19;;;;;;;11.05;6.78;;;;;;;;;;4912725;29;20703;-74
2023/12/27 06:01:45;;;;;;;;;;;;;;;;;;4913881;28;20035;-75
2023/12/27 06:04:11;;;;;;;10.55;6.18;;;;;;;;;;4906584;29;19911;-75
2023/12/27 06:06:37;;;;;;;12.35;6.93;;;;;;;;;;4923486;28;20131;-75
2023/12/27 06:09:03;;;;;;;14.90;8.05;;;;;;;;;;4926524;28;20031;-74
2023/12/27 06:11:29;;;;;;;13.93;6.55;;;;;;;;;;4926194;28;20126;-75
2023/12/27 06:13:55;;;;;;;21.10;8.90;;;;;;;;;;4929610;28;20091;-74
2023/12/27 06:16:21;;;;;;;19.38;8.00;;;;;;;;;;4928604;28;20889;-75
2023/12/27 06:18:48;;;;;;;18.30;6.82;;;;;;;;;;4911594;28;20038;-75
2023/12/27 06:21:14;;;;;;;12.18;6.30;;;;;;;;;;4926336;28;20034;-75
2023/12/27 06:23:40;;;;;;;13.30;5.85;;;;;;;;;;4921985;28;20035;-74
2023/12/27 06:26:06;;;;;;;12.20;5.95;;;;;;;;;;4921491;28;20058;-73
2023/12/27 06:28:32;;;;;;;;;;;;;;;;;;4923968;28;20198;-74
2023/12/27 06:30:58;;;;;;;11.48;6.70;;;;;;;;;;4922156;28;20365;-74
2023/12/27 06:33:25;;;;;;;12.07;6.50;;;;;;;;;;4896138;29;20048;-74
2023/12/27 06:35:52;;;;;;;10.65;5.63;;;;;;;;;;4887212;29;20143;-74
2023/12/27 06:38:17;;;;;;;;;;;;;;;;;;4894495;29;20056;-74
2023/12/27 06:40:44;;;;;;;9.60;5.00;;;;;;;;;;4891713;29;19923;-75
2023/12/27 06:43:10;;;;;;;10.15;4.80;;;;;;;;;;4890387;29;20039;-75
2023/12/27 06:45:36;;;;;;;10.45;5.10;;;;;;;;;;4889251;29;20148;-74
2023/12/27 06:48:02;;;;;;;10.35;5.10;;;;;;;;;;4899944;29;20039;-74
2023/12/27 06:50:28;;;;;;;9.23;4.72;;;;;;;;;;4891751;29;20035;-75
2023/12/27 06:52:55;;;;;;;11.27;4.78;;;;;;;;;;4892218;29;20047;-74
2023/12/27 06:55:21;;;;;;;10.43;5.20;;;;;;;;;;4894598;29;20035;-74
2023/12/27 06:57:47;;;;;;;10.73;5.18;;;;;;;;;;4894118;29;20047;-76
2023/12/27 07:00:14;;;;;;;9.15;4.80;;;;;;;;;;4886416;29;20043;-74
2023/12/27 07:02:40;;;;;;;10.82;5.75;;;;;;;;;;4893019;29;20036;-74
2023/12/27 07:05:07;;;;;;;10.73;5.78;;;;;;;;;;4896325;29;20033;-74
2023/12/27 07:07:34;;;;;;;10.25;5.50;;;;;;;;;;4891439;29;20039;-75
2023/12/27 07:10:00;;;;;;;10.75;5.45;;;;;;;;;;4889833;29;20020;-74
2023/12/27 07:12:26;;;;;;;10.50;5.70;;;;;;;;;;4891809;29;20099;-77
2023/12/27 07:14:52;;;;;;;10.85;5.80;;;;;;;;;;4890138;29;20040;-76
2023/12/27 07:17:20;;;;;;;9.55;5.45;;;;;;;;;;4891961;29;20716;-74
2023/12/27 07:19:46;;;;;;;11.20;5.88;;;;;;;;;;4890600;29;20024;-76
2023/12/27 07:22:13;;;;;;;14.18;6.53;;;;;;;;;;4889855;29;20455;-77
2023/12/27 07:24:40;;;;;;;13.35;6.60;;;;;;;;;;4885521;29;20506;-76
2023/12/27 07:27:06;;;;;;;11.95;6.50;;;;;;;;;;4894145;29;20028;-76
2023/12/27 07:29:35;;;;;;;12.32;6.47;;;;;;;;;;4885837;29;20041;-76
2023/12/27 07:32:01;;;;;;;12.75;6.80;;;;;;;;;;4901777;28;20054;-74
2023/12/27 07:34:27;;;;;;;11.68;7.25;;;;;;;;;;4911024;28;20038;-75
2023/12/27 07:36:53;;;;;;;14.43;7.35;;;;;;;;;;4924779;28;20055;-74
2023/12/27 07:39:20;;;;;;;18.75;7.93;;;;;;;;;;4910716;29;20066;-74
2023/12/27 07:41:46;;;;;;;16.52;10.35;;;;;;;;;;4906253;28;20174;-74
2023/12/27 07:44:12;;;;;;;16.27;9.98;;;;;;;;;;4924818;28;20042;-74
2023/12/27 07:46:38;;;;;;;18.27;10.02;;;;;;;;;;4906917;28;20039;-74
2023/12/27 07:49:05;;;;;;;17.75;8.73;;;;;;;;;;4923002;28;20026;-74
2023/12/27 07:51:31;;;;;;;15.43;8.65;;;;;;;;;;4903066;28;20039;-74
2023/12/27 07:53:57;;;;;;;16.98;8.88;;;;;;;;;;4924536;28;20035;-74
2023/12/27 07:56:23;;;;;;;14.88;8.73;;;;;;;;;;4908752;29;20036;-74
2023/12/27 07:58:49;;;;;;;16.25;9.43;;;;;;;;;;4908055;28;20031;-76
2023/12/27 08:01:16;;;;;;;14.52;9.52;;;;;;;;;;4927076;28;20027;-74
2023/12/27 08:03:44;;;;;;;16.45;10.40;;;;;;;;;;4907007;28;20067;-74
2023/12/27 08:06:11;;;;;;;17.60;10.70;;;;;;;;;;4922486;28;20258;-75
2023/12/27 08:08:37;;;;;;;17.58;9.95;;;;;;;;;;4907169;28;20070;-75
2023/12/27 08:11:06;;;;;;;17.95;11.27;;;;;;;;;;4911418;29;20553;-75
2023/12/27 08:13:32;;;;;;;16.83;11.25;;;;;;;;;;4922926;28;20031;-74
2023/12/27 08:15:58;;;;;;;;;;;;;;;;;;4929115;28;20035;-74
2023/12/27 08:18:24;;;;;;;16.75;11.80;;;;;;;;;;4925021;28;19921;-74
2023/12/27 08:20:51;;;;;;;14.85;10.73;;;;;;;;;;4918020;28;20036;-74
2023/12/27 08:23:17;;;;;;;17.65;10.68;;;;;;;;;;4912644;29;20031;-74
2023/12/27 08:25:43;;;;;;;;;;;;;;;;;;4920308;28;20142;-74
2023/12/27 08:28:09;;;;;;;16.33;10.45;;;;;;;;;;4930520;28;19914;-74
2023/12/27 08:30:35;;;;;;;17.58;10.68;;;;;;;;;;4921569;28;20094;-74
2023/12/27 08:33:01;;;;;;;16.90;8.90;;;;;;;;;;4917431;29;20051;-76
2023/12/27 08:35:27;;;;;;;16.00;10.35;;;;;;;;;;4906668;28;20042;-76
2023/12/27 08:37:54;;;;;;;25.23;14.68;;;;;;;;;;4916153;28;20035;-74
2023/12/27 08:40:20;;;;;;;31.50;17.95;;;;;;;;;;4912133;29;20040;-74
2023/12/27 08:42:46;;;;;;;;;;;;;;;;;;4913968;28;25317;-76
2023/12/27 08:45:14;;;;;;;26.88;16.73;;;;;;;;;;4927998;28;20626;-75
2023/12/27 08:47:40;;;;;;;26.80;17.95;;;;;;;;;;4927702;28;20126;-75
2023/12/27 08:50:06;;;;;;;;;;;;;;;;;;4915499;28;20888;-75
2023/12/27 08:52:36;;;;;;;29.90;19.77;;;;;;;;;;4913015;28;20440;-75
2023/12/27 08:55:03;;;;;;;28.05;18.88;;;;;;;;;;4927796;28;20042;-76
2023/12/27 08:57:29;;;;;;;26.20;16.98;;;;;;;;;;4912270;28;20031;-76
2023/12/27 08:59:55;;;;;;;;;;;;;;;;;;4910116;29;20031;-76
2023/12/27 09:02:23;;;;;;;29.17;17.45;;;;;;;;;;4921972;28;19930;-76
2023/12/27 09:04:49;;;;;;;22.40;14.98;;;;;;;;;;4911331;28;20058;-77
2023/12/27 09:07:15;;;;;;;;;;;;;;;;;;4911466;29;20043;-76
2023/12/27 09:09:41;;;;;;;21.13;14.98;;;;;;;;;;4910677;28;19914;-76
2023/12/27 09:12:07;;;;;;;;;;;;;;;;;;4910168;29;20109;-75
2023/12/27 09:14:33;;;;;;;20.83;13.77;;;;;;;;;;4924790;28;19930;-76
2023/12/27 09:16:59;;;;;;;19.30;12.10;;;;;;;;;;4926041;28;20074;-74
2023/12/27 09:19:28;;;;;;;16.40;9.88;;;;;;;;;;4920601;28;20039;-75
2023/12/27 09:21:54;;;;;;;19.90;9.38;;;;;;;;;;4908909;28;20066;-75
2023/12/27 09:24:20;;;;;;;13.90;7.78;;;;;;;;;;4927164;28;20138;-75
2023/12/27 09:26:46;;;;;;;;;;;;;;;;;;4908383;28;20031;-75
2023/12/27 09:29:12;;;;;;;24.40;7.60;;;;;;;;;;4924876;28;19915;-75
2023/12/27 09:31:38;;;;;;;19.88;6.95;;;;;;;;;;4920449;28;20043;-75
2023/12/27 09:34:04;;;;;;;14.93;8.23;;;;;;;;;;4923144;28;20032;-75
2023/12/27 09:36:31;;;;;;;13.82;7.13;;;;;;;;;;4908341;28;20118;-76
2023/12/27 09:38:57;;;;;;;14.00;6.10;;;;;;;;;;4915402;29;20065;-76
2023/12/27 09:41:24;;;;;;;11.30;6.32;;;;;;;;;;4929091;28;20537;-75
2023/12/27 09:43:52;;;;;;;13.57;7.90;;;;;;;;;;4921490;28;20034;-75
2023/12/27 09:46:19;;;;;;;13.68;7.07;;;;;;;;;;4913172;29;20500;-74
2023/12/27 09:48:45;;;;;;;10.80;6.22;;;;;;;;;;4923763;28;20035;-74
2023/12/27 09:51:12;;;;;;;12.27;7.13;;;;;;;;;;4918951;28;20019;-75
2023/12/27 09:53:42;;;;;;;11.48;6.43;;;;;;;;;;4920200;28;20093;-76
2023/12/27 09:56:08;;;;;;;14.38;6.60;;;;;;;;;;4925482;28;20023;-76
2023/12/27 09:58:37;;;;;;;15.20;7.25;;;;;;;;;;4921446;28;20055;-75
2023/12/27 10:01:03;;;;;;;15.07;7.95;;;;;;;;;;4923731;28;20035;-76
2023/12/27 10:03:38;;;;;;;14.23;7.43;;;;;;;;;;4905077;28;20026;-77
2023/12/27 10:06:13;;;;;;;12.50;7.35;;;;;;;;;;4911434;29;20032;-76
2023/12/27 10:08:40;;;;;;;12.17;8.03;;;;;;;;;;4911216;28;20062;-75
2023/12/27 10:11:08;;;;;;;11.80;7.65;;;;;;;;;;4913399;29;20023;-78
2023/12/27 10:13:37;;;;;;;13.02;8.15;;;;;;;;;;4916917;28;20032;-75
2023/12/27 10:16:04;;;;;;;13.57;8.32;;;;;;;;;;4926603;28;20055;-75
2023/12/27 10:18:33;;;;;;;14.50;8.40;;;;;;;;;;4917677;28;20079;-77
2023/12/27 10:21:00;;;;;;;17.67;11.43;;;;;;;;;;4912523;29;20119;-76
2023/12/27 10:23:27;;;;;;;18.55;11.98;;;;;;;;;;4927690;28;20034;-74
2023/12/27 10:25:53;;;;;;;18.55;12.13;;;;;;;;;;4923090;28;20765;-74
2023/12/27 10:28:25;;;;;;;20.58;13.30;;;;;;;;;;4912195;29;20041;-74
2023/12/27 10:30:52;;;;;;;18.23;12.38;;;;;;;;;;4911716;28;20023;-77
2023/12/27 10:33:20;;;;;;;18.92;11.82;;;;;;;;;;4925763;28;20057;-75
2023/12/27 10:35:47;;;;;;;16.63;10.00;;;;;;;;;;4906652;28;21731;-75
2023/12/27 10:38:13;;;;;;;17.50;9.32;;;;;;;;;;4929706;28;20065;-75
2023/12/27 10:40:40;;;;;;;15.18;8.55;;;;;;;;;;4925792;28;20043;-73
2023/12/27 10:43:06;;;;;;;14.00;7.85;;;;;;;;;;4926825;28;20067;-74
2023/12/27 10:45:33;;;;;;;12.15;6.90;;;;;;;;;;4903622;28;20109;-75
2023/12/27 10:48:00;;;;;;;11.80;6.40;;;;;;;;;;4911762;29;20134;-74
2023/12/27 10:50:30;;;;;;;11.38;6.28;;;;;;;;;;4907265;29;20039;-74
2023/12/27 10:53:01;;;;;;;10.32;5.80;;;;;;;;;;4908757;29;20411;-74
2023/12/27 10:55:28;;;;;;;9.90;5.22;;;;;;;;;;4905717;28;20039;-73
2023/12/27 10:57:56;;;;;;;11.07;5.47;;;;;;;;;;4925748;28;20043;-75
2023/12/27 11:00:23;;;;;;;11.60;6.25;;;;;;;;;;4922428;28;20557;-75
2023/12/27 11:02:50;;;;;;;10.63;6.30;;;;;;;;;;4907459;28;20027;-75
2023/12/27 11:05:17;;;;;;;11.23;6.03;;;;;;;;;;4914162;29;20138;-76
2023/12/27 11:07:44;;;;;;;10.38;5.43;;;;;;;;;;4923632;28;20122;-75
2023/12/27 11:10:11;;;;;;;11.88;6.30;;;;;;;;;;4919581;28;20138;-74
2023/12/27 11:12:38;;;;;;;11.52;5.90;;;;;;;;;;4924632;28;20143;-72
2023/12/27 11:15:04;;;;;;;12.30;5.90;;;;;;;;;;4910423;29;20113;-75
2023/12/27 11:17:32;;;;;;;11.57;6.40;;;;;;;;;;4924917;28;20030;-75
2023/12/27 11:19:58;;;;;;;9.63;5.18;;;;;;;;;;4910243;29;20032;-75
2023/12/27 11:22:24;;;;;;;11.85;4.68;;;;;;;;;;4925848;28;20772;-75
2023/12/27 11:24:53;;;;;;;11.57;7.07;;;;;;;;;;4922260;28;20040;-75
2023/12/27 11:27:20;;;;;;;8.20;3.65;;;;;;;;;;4928256;28;20035;-75
2023/12/27 11:29:47;;;;;;;10.00;3.42;;;;;;;;;;4917738;28;22046;-75
2023/12/27 11:32:13;;;;;;;9.27;3.92;;;;;;;;;;4927320;28;20059;-75
2023/12/27 11:34:39;;;;;;;9.60;3.80;;;;;;;;;;4922061;28;20523;-75
2023/12/27 11:37:06;;;;;;;8.98;3.95;;;;;;;;;;4909970;29;20043;-76
2023/12/27 11:39:33;;;;;;;8.77;3.50;;;;;;;;;;4922325;28;20143;-76
2023/12/27 11:42:00;;;;;;;13.80;8.35;;;;;;;;;;4910701;29;20148;-76
2023/12/27 11:44:48;;;;;;;11.50;6.10;;;;;;;;;;4907746;29;20099;-76
2023/12/27 11:47:17;;;;;;;11.45;4.47;;;;;;;;;;4929335;28;20028;-75
2023/12/27 11:52:50;;;;;;;9.65;3.55;;;;;;;;;;4917713;28;20062;-76
2023/12/27 11:55:18;;;;;;;8.88;4.57;;;;;;;;;;4910620;29;20031;-75
2023/12/27 11:57:44;;;;;;;8.48;4.05;;;;;;;;;;4910977;28;20036;-75
2023/12/27 12:00:14;;;;;;;10.23;4.38;;;;;;;;;;4913944;29;20034;-76
2023/12/27 12:02:47;;;;;;;12.38;5.70;;;;;;;;;;4927766;28;20156;-76
2023/12/27 12:05:35;;;;;;;11.48;5.50;;;;;;;;;;4918829;29;20027;-75
2023/12/27 12:08:20;;;;;;;11.05;4.80;;;;;;;;;;4899235;29;20042;-74
2023/12/27 12:11:04;;;;;;;9.18;4.47;;;;;;;;;;4927372;28;20035;-74
2023/12/27 12:13:31;;;;;;;8.45;3.20;;;;;;;;;;4903662;28;20114;-74
2023/12/27 12:15:57;;;;;;;7.07;3.00;;;;;;;;;;4930514;28;20036;-74
2023/12/27 12:18:24;;;;;;;9.43;4.45;;;;;;;;;;4907299;29;20059;-74
2023/12/27 12:20:50;;;;;;;8.52;3.72;;;;;;;;;;4923740;28;21013;-74
2023/12/27 12:23:17;;;;;;;8.50;3.53;;;;;;;;;;4911050;29;20027;-74
2023/12/27 12:25:44;;;;;;;7.57;3.50;;;;;;;;;;4924615;28;20078;-75
2023/12/27 12:28:10;;;;;;;8.57;3.03;;;;;;;;;;4911431;29;20023;-74
2023/12/27 12:30:37;;;;;;;9.70;3.50;;;;;;;;;;4911220;28;20035;-74
2023/12/27 12:33:06;;;;;;;8.48;3.35;;;;;;;;;;4898539;29;20059;-74
2023/12/27 12:35:32;;;;;;;7.30;2.70;;;;;;;;;;4889692;29;20777;-75
2023/12/27 12:38:00;;;;;;;8.90;3.72;;;;;;;;;;4890586;29;20540;-74
2023/12/27 12:40:26;;;;;;;11.00;4.10;;;;;;;;;;4891595;29;20040;-74
2023/12/27 12:42:53;;;;;;;12.25;4.80;;;;;;;;;;4892913;29;20052;-74
2023/12/27 12:45:19;;;;;;;11.13;5.72;;;;;;;;;;4889169;29;20052;-74
2023/12/27 12:47:45;;;;;;;10.63;4.63;;;;;;;;;;4886123;29;20595;-74
2023/12/27 12:50:12;;;;;;;8.70;2.92;;;;;;;;;;4892112;29;20048;-74
2023/12/27 12:52:38;;;;;;;7.53;2.72;;;;;;;;;;4886895;29;20040;-75
2023/12/27 12:55:04;;;;;;;10.20;3.10;;;;;;;;;;4889132;29;20043;-74
2023/12/27 12:57:31;;;;;;;6.30;2.28;;;;;;;;;;4891877;29;20106;-74
2023/12/27 12:59:57;;;;;;;8.88;2.80;;;;;;;;;;4891051;29;20139;-75
2023/12/27 13:02:23;;;;;;;7.38;2.13;;;;;;;;;;4892595;29;20052;-75
2023/12/27 13:04:53;;;;;;;7.38;2.58;;;;;;;;;;4888558;29;20081;-75
2023/12/27 13:07:20;;;;;;;5.88;2.20;;;;;;;;;;4892705;29;20474;-75
2023/12/27 13:09:53;;;;;;;8.82;2.70;;;;;;;;;;4889055;29;20051;-75
2023/12/27 13:12:23;;;;;;;7.00;2.58;;;;;;;;;;4884846;29;20031;-76
2023/12/27 13:14:50;;;;;;;7.88;2.88;;;;;;;;;;4904579;29;20982;-75
2023/12/27 13:17:16;;;;;;;7.68;3.08;;;;;;;;;;4889523;29;20044;-74
2023/12/27 13:19:42;;;;;;;6.65;2.70;;;;;;;;;;4886090;29;20044;-74
2023/12/27 13:22:09;;;;;;;7.10;2.75;;;;;;;;;;4889297;29;20114;-74
2023/12/27 13:24:35;;;;;;;6.65;2.83;;;;;;;;;;4887491;29;20039;-73
2023/12/27 13:27:01;;;;;;;7.40;2.80;;;;;;;;;;4892002;29;20016;-73
2023/12/27 13:29:27;;;;;;;7.95;3.20;;;;;;;;;;4883522;29;20099;-76
2023/12/27 13:31:53;;;;;;;9.30;3.90;;;;;;;;;;4899842;28;20130;-75
2023/12/27 13:34:19;;;;;;;9.05;3.08;;;;;;;;;;4917831;29;20134;-75
2023/12/27 13:36:45;;;;;;;8.95;3.25;;;;;;;;;;4919651;28;20035;-76
2023/12/27 13:39:14;;;;;;;7.72;3.15;;;;;;;;;;4923820;28;20116;-76
2023/12/27 13:41:40;;;;;;;9.20;3.53;;;;;;;;;;4909915;28;20149;-75
2023/12/27 13:44:06;;;;;;;9.23;3.78;;;;;;;;;;4925928;28;20801;-75
2023/12/27 13:46:33;;;;;;;7.75;3.42;;;;;;;;;;4922280;28;20058;-75
2023/12/27 13:48:59;;;;;;;8.18;3.08;;;;;;;;;;4919920;28;20039;-75
2023/12/27 13:51:26;;;;;;;10.10;3.05;;;;;;;;;;4904986;29;20035;-75
2023/12/27 13:53:52;;;;;;;7.32;3.00;;;;;;;;;;4919357;28;20137;-76
2023/12/27 13:56:19;;;;;;;8.60;2.72;;;;;;;;;;4922693;28;20202;-76
2023/12/27 13:58:46;;;;;;;7.97;3.13;;;;;;;;;;4902134;28;20777;-76
2023/12/27 14:01:13;;;;;;;8.07;3.20;;;;;;;;;;4922035;28;20035;-75
2023/12/27 14:03:39;;;;;;;7.85;2.90;;;;;;;;;;4900444;28;20806;-75
2023/12/27 14:06:05;;;;;;;8.95;3.28;;;;;;;;;;4901629;29;20171;-76
2023/12/27 14:08:31;;;;;;;7.57;2.72;;;;;;;;;;4917573;28;20114;-76
2023/12/27 14:10:57;;;;;;;7.35;2.90;;;;;;;;;;4922193;28;20046;-76
2023/12/27 14:13:24;;;;;;;7.43;2.90;;;;;;;;;;4905309;29;20585;-76
2023/12/27 14:15:51;;;;;;;6.95;2.80;;;;;;;;;;4918155;28;20035;-75
2023/12/27 14:18:17;;;;;;;7.35;2.95;;;;;;;;;;4903749;29;20035;-75
2023/12/27 14:20:44;;;;;;;6.97;2.65;;;;;;;;;;4918755;28;20054;-75
2023/12/27 14:23:10;;;;;;;11.52;3.60;;;;;;;;;;4903373;29;20042;-75
2023/12/27 14:25:36;;;;;;;10.05;5.28;;;;;;;;;;4917725;28;20027;-74
2023/12/27 14:28:04;;;;;;;7.55;3.00;;;;;;;;;;4920032;28;20070;-74
2023/12/27 14:30:31;;;;;;;7.75;2.75;;;;;;;;;;4917956;28;20548;-74
2023/12/27 14:32:58;;;;;;;8.10;2.88;;;;;;;;;;4918547;28;20160;-74
2023/12/27 14:35:24;;;;;;;7.63;2.60;;;;;;;;;;4904487;29;20560;-76
2023/12/27 14:37:50;;;;;;;9.95;5.25;;;;;;;;;;4916049;28;20034;-73
2023/12/27 14:40:16;;;;;;;6.70;2.72;;;;;;;;;;4904159;29;20049;-73